Time;durP1;ratioP1;P1;durP2;ratioP2;P2;SDS_P1;SDS_P2;PMS_P1;PMS_P2;Temp;Humidity;BMP_temperature;BMP_pressure;BME280_temperature;BME280_humidity;BME280_pressure;Samples;Min_cycle;Max_cycle;Signal;HPM_P1;HPM_P2
2023/07/12 00:00:47;;;;;;;9.32;2.00;;;17.80;99.90;;;;;;4992075;28;20045;-70
2023/07/12 00:03:14;;;;;;;2.90;1.40;;;17.80;99.90;;;;;;5006506;28;20057;-70
2023/07/12 00:05:39;;;;;;;6.05;1.70;;;17.80;99.90;;;;;;4995570;28;20451;-72
2023/07/12 00:08:05;;;;;;;8.32;1.38;;;17.80;99.90;;;;;;4989501;28;20034;-72
2023/07/12 00:10:36;;;;;;;4.85;1.48;;;17.90;99.90;;;;;;4998286;28;20030;-71
2023/07/12 00:13:02;;;;;;;5.05;1.45;;;17.80;99.90;;;;;;4990825;28;20048;-73
2023/07/12 00:15:32;;;;;;;7.90;1.55;;;17.80;99.90;;;;;;4988219;28;20106;-74
2023/07/12 00:17:58;;;;;;;4.63;0.80;;;17.80;99.90;;;;;;4974180;28;20057;-72
2023/07/12 00:20:33;;;;;;;3.53;1.13;;;17.80;99.90;;;;;;4999537;28;20668;-70
2023/07/12 00:23:00;;;;;;;3.00;1.05;;;17.80;99.90;;;;;;4974868;28;20041;-72
2023/07/12 00:25:30;;;;;;;4.85;0.80;;;17.80;99.90;;;;;;4967294;28;20455;-73
2023/07/12 00:27:56;;;;;;;3.85;1.00;;;17.80;99.90;;;;;;4999280;28;20038;-72
2023/07/12 00:30:26;;;;;;;4.30;1.15;;;17.90;99.90;;;;;;5001210;28;20034;-72
2023/07/12 00:32:55;;;;;;;2.47;0.82;;;17.90;99.90;;;;;;4987111;28;20085;-73
2023/07/12 00:35:25;;;;;;;3.25;0.93;;;17.90;99.90;;;;;;4987060;28;20026;-72
2023/07/12 00:37:54;;;;;;;2.58;0.95;;;17.90;99.90;;;;;;4991345;28;20034;-71
2023/07/12 00:40:23;;;;;;;3.45;1.00;;;17.90;99.90;;;;;;4986649;28;20096;-70
2023/07/12 00:42:57;;;;;;;9.95;0.80;;;17.90;99.90;;;;;;4989495;28;20045;-72
2023/07/12 00:45:23;;;;;;;5.88;1.85;;;17.90;99.90;;;;;;4986990;28;20054;-71
2023/07/12 00:47:49;;;;;;;3.40;0.73;;;17.90;99.90;;;;;;4989712;28;20042;-70
2023/07/12 00:50:19;;;;;;;1.65;0.65;;;17.90;99.90;;;;;;5006320;28;20533;-71
2023/07/12 00:52:46;;;;;;;4.22;0.90;;;17.90;99.90;;;;;;5006792;28;20088;-71
2023/07/12 00:55:53;;;;;;;5.22;1.00;;;17.80;99.90;;;;;;5006069;28;20042;-72
2023/07/12 00:58:19;;;;;;;9.35;1.23;;;17.80;99.90;;;;;;4989806;28;20050;-70
2023/07/12 01:00:45;;;;;;;6.32;1.50;;;17.80;99.90;;;;;;4997425;28;20034;-74
2023/07/12 01:03:12;;;;;;;3.83;0.90;;;17.80;99.90;;;;;;4992407;28;20050;-72
2023/07/12 01:05:40;;;;;;;3.15;1.00;;;17.80;99.90;;;;;;4989455;28;20038;-71
2023/07/12 01:08:06;;;;;;;3.80;1.08;;;17.80;99.90;;;;;;5004351;28;20037;-72
2023/07/12 01:10:31;;;;;;;10.65;1.70;;;17.80;99.90;;;;;;4987247;28;20038;-71
2023/07/12 01:12:57;;;;;;;5.85;1.10;;;17.80;99.90;;;;;;5006786;28;20037;-71
2023/07/12 01:15:23;;;;;;;3.72;1.15;;;17.80;99.90;;;;;;5003409;28;20049;-70
2023/07/12 01:17:48;;;;;;;8.48;2.08;;;17.70;99.90;;;;;;5000824;28;20034;-71
2023/07/12 01:20:14;;;;;;;4.95;1.25;;;17.60;99.90;;;;;;4998958;28;20039;-71
2023/07/12 01:22:40;;;;;;;8.80;1.88;;;17.60;99.90;;;;;;4994835;28;20045;-71
2023/07/12 01:25:05;;;;;;;8.95;2.08;;;17.50;99.90;;;;;;4999812;28;20369;-71
2023/07/12 01:27:31;;;;;;;7.10;1.40;;;17.40;99.90;;;;;;5004046;28;20116;-70
2023/07/12 01:29:57;;;;;;;9.27;1.63;;;17.30;99.90;;;;;;4990722;28;20039;-71
2023/07/12 01:32:22;;;;;;;8.57;1.40;;;17.30;99.90;;;;;;4997971;28;20614;-71
2023/07/12 01:34:48;;;;;;;11.63;1.50;;;17.30;99.90;;;;;;4993066;28;20503;-72
2023/07/12 01:37:14;;;;;;;4.85;1.55;;;17.20;99.90;;;;;;4999411;28;20046;-73
2023/07/12 01:39:40;;;;;;;5.00;1.25;;;17.20;99.90;;;;;;4993212;28;20038;-71
2023/07/12 01:42:05;;;;;;;9.32;1.30;;;17.20;99.90;;;;;;4996501;28;20427;-70
2023/07/12 01:44:31;;;;;;;11.65;1.35;;;17.10;99.90;;;;;;5001651;28;20447;-70
2023/07/12 01:46:57;;;;;;;8.90;1.80;;;17.10;99.90;;;;;;4998458;28;20041;-69
2023/07/12 01:49:22;;;;;;;7.82;1.42;;;17.10;99.90;;;;;;5003198;28;20084;-70
2023/07/12 01:51:49;;;;;;;10.70;1.98;;;17.10;99.90;;;;;;5009826;28;20095;-70
2023/07/12 01:54:14;;;;;;;8.48;1.52;;;17.10;99.90;;;;;;4998442;28;20026;-70
2023/07/12 01:56:40;;;;;;;6.60;1.67;;;17.10;99.90;;;;;;5001505;28;20533;-70
2023/07/12 01:59:06;;;;;;;5.55;1.70;;;17.00;99.90;;;;;;5000932;28;20096;-70
2023/07/12 02:01:31;;;;;;;13.05;1.60;;;17.00;99.90;;;;;;4994965;28;20034;-71
2023/07/12 02:03:57;;;;;;;9.85;1.52;;;17.00;99.90;;;;;;5001672;28;20039;-70
2023/07/12 02:06:22;;;;;;;9.00;1.98;;;16.90;99.90;;;;;;5000875;28;20066;-71
2023/07/12 02:08:48;;;;;;;5.28;1.17;;;16.90;99.90;;;;;;4995660;28;20096;-73
2023/07/12 02:11:14;;;;;;;10.50;1.60;;;16.90;99.90;;;;;;5002039;28;20037;-70
2023/07/12 02:13:40;;;;;;;6.88;1.48;;;16.90;99.90;;;;;;4993204;28;20038;-70
2023/07/12 02:16:06;;;;;;;12.30;1.88;;;16.90;99.90;;;;;;5002967;28;20056;-71
2023/07/12 02:18:31;;;;;;;10.63;2.42;;;16.90;99.90;;;;;;5007898;28;20062;-71
2023/07/12 02:20:57;;;;;;;4.18;1.10;;;16.90;99.90;;;;;;5003625;28;20125;-71
2023/07/12 02:23:22;;;;;;;10.02;1.42;;;16.90;99.90;;;;;;4997550;28;20104;-71
2023/07/12 02:25:48;;;;;;;6.60;0.80;;;16.90;99.90;;;;;;4999355;28;20057;-72
2023/07/12 02:28:14;;;;;;;8.90;1.55;;;16.80;99.90;;;;;;4998744;28;20046;-70
2023/07/12 02:30:44;;;;;;;8.80;1.10;;;16.80;99.90;;;;;;4994358;28;20042;-73
2023/07/12 02:33:10;;;;;;;7.63;1.25;;;16.80;99.90;;;;;;5000091;28;20034;-70
2023/07/12 02:35:39;;;;;;;5.90;1.00;;;16.80;99.90;;;;;;5000733;28;20129;-71
2023/07/12 02:38:05;;;;;;;7.32;1.25;;;16.80;99.90;;;;;;4995864;28;20042;-70
2023/07/12 02:40:31;;;;;;;9.48;1.92;;;16.80;99.90;;;;;;5001631;28;20121;-71
2023/07/12 02:42:56;;;;;;;4.07;1.30;;;16.80;99.90;;;;;;4999973;28;20042;-71
2023/07/12 02:45:23;;;;;;;5.32;1.20;;;16.80;99.90;;;;;;4992764;28;20034;-71
2023/07/12 02:47:49;;;;;;;4.70;1.17;;;16.80;99.90;;;;;;4987995;28;20031;-71
2023/07/12 02:50:15;;;;;;;11.45;1.20;;;16.80;99.90;;;;;;5007618;28;20053;-71
2023/07/12 02:52:40;;;;;;;11.02;1.85;;;16.80;99.90;;;;;;4998084;28;20547;-71
2023/07/12 02:55:06;;;;;;;8.27;1.15;;;16.80;99.90;;;;;;5000283;28;20026;-71
2023/07/12 02:57:32;;;;;;;8.77;1.67;;;16.90;99.90;;;;;;5001687;28;20053;-70
2023/07/12 02:59:57;;;;;;;10.93;1.50;;;16.90;99.90;;;;;;4990298;28;20062;-70
2023/07/12 03:02:23;;;;;;;11.05;1.98;;;16.90;99.90;;;;;;4998202;28;20053;-71
2023/07/12 03:04:50;;;;;;;6.05;1.40;;;16.90;99.90;;;;;;5003768;28;20553;-72
2023/07/12 03:07:15;;;;;;;11.73;1.67;;;16.90;99.90;;;;;;5000763;28;20124;-72
2023/07/12 03:09:41;;;;;;;12.40;1.85;;;17.00;99.90;;;;;;4995475;28;20465;-71
2023/07/12 03:12:07;;;;;;;9.32;1.88;;;17.00;99.90;;;;;;5005578;28;20026;-72
2023/07/12 03:14:32;;;;;;;7.65;1.55;;;17.00;99.90;;;;;;4992110;28;20085;-71
2023/07/12 03:16:58;;;;;;;8.27;1.83;;;17.00;99.90;;;;;;4993767;28;20030;-72
2023/07/12 03:19:24;;;;;;;12.02;1.83;;;17.00;99.90;;;;;;5000654;28;20064;-71
2023/07/12 03:21:49;;;;;;;11.50;2.17;;;17.00;99.90;;;;;;4992343;28;20039;-70
2023/07/12 03:24:15;;;;;;;9.48;2.35;;;17.00;99.90;;;;;;4996513;28;20060;-70
2023/07/12 03:26:41;;;;;;;9.45;3.13;;;17.10;99.90;;;;;;4992645;28;20547;-71
2023/07/12 03:29:07;;;;;;;6.93;1.95;;;17.00;99.90;;;;;;5001308;28;20041;-71
2023/07/12 03:31:32;;;;;;;9.55;2.28;;;17.10;99.90;;;;;;4991984;28;20096;-72
2023/07/12 03:33:59;;;;;;;7.57;2.70;;;17.00;99.90;;;;;;4988500;28;20407;-70
2023/07/12 03:36:28;;;;;;;6.90;1.95;;;17.00;99.90;;;;;;4996935;28;20044;-71
2023/07/12 03:38:55;;;;;;;7.93;2.05;;;16.90;99.90;;;;;;4994899;28;20042;-72
2023/07/12 03:41:21;;;;;;;8.65;2.17;;;17.00;99.90;;;;;;4996379;28;20356;-72
2023/07/12 03:43:47;;;;;;;5.82;1.40;;;16.90;99.90;;;;;;5007590;28;20041;-71
2023/07/12 03:46:13;;;;;;;8.60;1.48;;;17.00;99.90;;;;;;5004851;28;20042;-71
2023/07/12 03:48:39;;;;;;;4.32;1.48;;;16.90;99.90;;;;;;5006578;28;20030;-71
2023/07/12 03:51:05;;;;;;;13.68;2.13;;;16.90;99.90;;;;;;4992212;28;20034;-71
2023/07/12 03:53:31;;;;;;;4.80;1.80;;;16.80;99.90;;;;;;4998132;28;20030;-71
2023/07/12 03:55:59;;;;;;;10.00;1.50;;;16.80;99.90;;;;;;4994524;28;20038;-71
2023/07/12 03:58:28;;;;;;;5.00;1.30;;;16.80;99.90;;;;;;4999314;28;20117;-71
2023/07/12 04:00:53;;;;;;;5.32;1.50;;;16.70;99.90;;;;;;4990643;28;20042;-71
2023/07/12 04:03:19;;;;;;;9.90;2.78;;;16.70;99.90;;;;;;4995739;28;20674;-71
2023/07/12 04:05:50;;;;;;;8.60;1.60;;;16.70;99.90;;;;;;4994464;28;20065;-71
2023/07/12 04:08:16;;;;;;;4.32;1.60;;;16.70;99.90;;;;;;4993338;28;20027;-71
2023/07/12 04:10:41;;;;;;;8.10;2.20;;;16.70;99.90;;;;;;5003012;28;20606;-71
2023/07/12 04:13:07;;;;;;;6.35;1.35;;;16.60;99.90;;;;;;5004208;28;20045;-71
2023/07/12 04:15:34;;;;;;;7.43;2.28;;;16.60;99.90;;;;;;4995809;28;20170;-70
2023/07/12 04:17:59;;;;;;;9.32;2.33;;;16.70;99.90;;;;;;4997312;28;20384;-71
2023/07/12 04:20:25;;;;;;;6.43;1.80;;;16.70;99.90;;;;;;4999898;28;20125;-71
2023/07/12 04:22:52;;;;;;;5.93;1.85;;;16.70;99.90;;;;;;4997263;28;20683;-72
2023/07/12 04:25:18;;;;;;;11.70;2.13;;;16.70;99.90;;;;;;5000077;28;20038;-72
2023/07/12 04:27:45;;;;;;;7.03;2.00;;;16.80;99.90;;;;;;4995758;28;20033;-73
2023/07/12 04:30:15;;;;;;;10.75;2.30;;;16.80;99.90;;;;;;4996408;28;20038;-73
2023/07/12 04:32:41;;;;;;;9.52;2.40;;;16.80;99.90;;;;;;5000004;28;20515;-72
2023/07/12 04:35:08;;;;;;;12.90;2.47;;;16.90;99.90;;;;;;4996670;28;20105;-72
2023/07/12 04:37:34;;;;;;;4.75;2.10;;;16.90;99.90;;;;;;5005174;28;20044;-72
2023/07/12 04:40:00;;;;;;;5.65;2.03;;;16.90;99.90;;;;;;5000634;28;20034;-71
2023/07/12 04:42:25;;;;;;;12.13;2.72;;;16.90;99.90;;;;;;4994383;28;20388;-72
2023/07/12 04:44:51;;;;;;;8.02;2.95;;;16.90;99.90;;;;;;4991766;28;20037;-70
2023/07/12 04:47:17;;;;;;;11.20;3.35;;;16.90;99.90;;;;;;4991241;28;20803;-71
2023/07/12 04:49:43;;;;;;;14.02;3.53;;;16.80;99.90;;;;;;4992909;28;20085;-71
2023/07/12 04:52:11;;;;;;;11.05;2.83;;;16.80;99.90;;;;;;4998076;28;20034;-73
2023/07/12 04:54:39;;;;;;;7.32;2.25;;;16.80;99.90;;;;;;4991477;28;20030;-73
2023/07/12 04:57:05;;;;;;;10.32;3.50;;;16.80;99.90;;;;;;4990156;28;20038;-74
2023/07/12 04:59:31;;;;;;;7.43;2.60;;;16.90;99.90;;;;;;4992203;28;20050;-71
2023/07/12 05:01:56;;;;;;;8.90;2.65;;;16.90;99.90;;;;;;4993847;28;20463;-71
2023/07/12 05:04:22;;;;;;;9.85;2.42;;;17.00;99.90;;;;;;4990090;28;20049;-71
2023/07/12 05:06:48;;;;;;;6.53;2.00;;;17.10;99.90;;;;;;4993751;28;20117;-72
2023/07/12 05:09:13;;;;;;;10.75;2.20;;;17.20;99.90;;;;;;4993804;28;20038;-73
2023/07/12 05:11:39;;;;;;;7.40;2.33;;;17.20;99.90;;;;;;4991551;28;20541;-71
2023/07/12 05:14:04;;;;;;;6.43;2.22;;;17.20;99.90;;;;;;4993309;28;20032;-71
2023/07/12 05:16:30;;;;;;;10.20;2.40;;;17.30;99.90;;;;;;4994186;28;20065;-70
2023/07/12 05:18:55;;;;;;;14.55;2.47;;;17.20;99.90;;;;;;4995382;28;20038;-71
2023/07/12 05:21:23;;;;;;;10.32;2.38;;;17.20;99.90;;;;;;4998501;28;20092;-70
2023/07/12 05:23:49;;;;;;;7.60;1.92;;;17.30;99.90;;;;;;4995362;28;20042;-70
2023/07/12 05:26:15;;;;;;;12.85;2.53;;;17.20;99.90;;;;;;4995929;28;20538;-70
2023/07/12 05:28:41;;;;;;;7.47;2.25;;;17.10;99.90;;;;;;4994817;28;20053;-70
2023/07/12 05:31:08;;;;;;;7.63;2.70;;;17.20;99.90;;;;;;4993754;28;20754;-72
2023/07/12 05:33:34;;;;;;;17.42;3.30;;;17.10;99.90;;;;;;4998924;28;20033;-70
2023/07/12 05:36:01;;;;;;;8.02;2.38;;;17.20;99.90;;;;;;4993660;28;20034;-71
2023/07/12 05:38:27;;;;;;;11.13;2.47;;;17.20;99.90;;;;;;4991584;28;20044;-71
2023/07/12 05:40:56;;;;;;;5.80;2.08;;;17.30;99.90;;;;;;4994767;28;20118;-72
2023/07/12 05:43:23;;;;;;;6.18;2.92;;;17.40;99.90;;;;;;4992631;28;20081;-72
2023/07/12 05:45:49;;;;;;;7.65;2.67;;;17.40;99.90;;;;;;4992588;28;20047;-72
2023/07/12 05:48:14;;;;;;;9.25;2.50;;;17.50;99.90;;;;;;4993134;28;20124;-71
2023/07/12 05:50:40;;;;;;;12.27;3.42;;;17.50;99.90;;;;;;4993962;28;20084;-71
2023/07/12 05:53:05;;;;;;;9.40;2.70;;;17.50;99.90;;;;;;4994129;28;20109;-72
2023/07/12 05:55:31;;;;;;;12.23;2.85;;;17.70;99.90;;;;;;4995900;28;20045;-72
2023/07/12 05:57:57;;;;;;;14.60;3.13;;;18.10;99.90;;;;;;4989535;28;20034;-71
2023/07/12 06:00:23;;;;;;;8.07;1.98;;;18.40;99.90;;;;;;4989175;28;20050;-72
2023/07/12 06:02:48;;;;;;;7.25;2.15;;;18.60;99.90;;;;;;4994618;28;20042;-71
2023/07/12 06:05:14;;;;;;;8.27;1.73;;;18.60;99.90;;;;;;4990271;28;20029;-73
2023/07/12 06:07:41;;;;;;;13.50;3.38;;;18.50;99.90;;;;;;4990742;28;20073;-71
2023/07/12 06:10:07;;;;;;;5.18;2.25;;;18.30;99.90;;;;;;4993136;28;20034;-72
2023/07/12 06:12:33;;;;;;;25.90;2.28;;;18.20;99.90;;;;;;4986441;28;20048;-71
2023/07/12 06:14:58;;;;;;;12.65;1.70;;;18.20;99.90;;;;;;4988355;28;20026;-71
2023/07/12 06:17:24;;;;;;;10.23;2.22;;;18.20;99.90;;;;;;4985831;28;20037;-72
2023/07/12 06:19:50;;;;;;;5.10;1.77;;;18.20;99.90;;;;;;4995946;28;20141;-73
2023/07/12 06:22:16;;;;;;;7.85;1.60;;;18.20;99.90;;;;;;4991094;28;20038;-72
2023/07/12 06:24:41;;;;;;;9.65;2.13;;;18.50;99.90;;;;;;4988388;28;20162;-73
2023/07/12 06:27:07;;;;;;;13.77;2.13;;;18.80;99.90;;;;;;4994508;28;20061;-72
2023/07/12 06:29:32;;;;;;;9.52;2.15;;;19.00;99.90;;;;;;4994507;28;20033;-70
2023/07/12 06:31:58;;;;;;;6.38;1.45;;;19.20;99.90;;;;;;4990946;28;20057;-71
2023/07/12 06:34:23;;;;;;;14.07;1.70;;;19.40;99.90;;;;;;4994191;28;20519;-71
2023/07/12 06:36:49;;;;;;;5.18;1.30;;;19.40;99.90;;;;;;4988869;28;20395;-73
2023/07/12 06:39:16;;;;;;;9.20;2.17;;;19.50;99.90;;;;;;4994144;28;20125;-72
2023/07/12 06:41:41;;;;;;;5.80;1.48;;;19.60;99.90;;;;;;4995575;28;20031;-71
2023/07/12 06:44:07;;;;;;;8.27;1.70;;;19.60;99.90;;;;;;4991274;28;20053;-71
2023/07/12 06:46:32;;;;;;;8.50;1.40;;;19.70;99.90;;;;;;4996311;28;20056;-72
2023/07/12 06:48:58;;;;;;;9.38;1.60;;;19.90;99.90;;;;;;4990542;28;20121;-72
2023/07/12 06:51:24;;;;;;;10.82;1.80;;;20.20;99.90;;;;;;4994350;28;20523;-71
2023/07/12 06:53:49;;;;;;;6.18;1.35;;;20.50;99.90;;;;;;4992122;28;20105;-71
2023/07/12 06:56:15;;;;;;;15.48;1.65;;;21.10;99.90;;;;;;4992993;28;20053;-72
2023/07/12 06:58:41;;;;;;;8.65;1.40;;;21.80;99.90;;;;;;4991151;28;20113;-73
2023/07/12 07:01:10;;;;;;;6.28;1.95;;;22.30;99.90;;;;;;4996244;28;20042;-71
2023/07/12 07:03:36;;;;;;;7.90;1.85;;;22.60;99.90;;;;;;4991813;28;20037;-70
2023/07/12 07:06:02;;;;;;;5.45;1.00;;;22.70;99.90;;;;;;4995330;28;20046;-71
2023/07/12 07:08:29;;;;;;;5.88;1.15;;;22.60;99.90;;;;;;4995298;28;20080;-71
2023/07/12 07:10:56;;;;;;;7.28;1.90;;;22.50;99.90;;;;;;4988930;28;20042;-72
2023/07/12 07:13:23;;;;;;;13.45;1.90;;;22.30;99.90;;;;;;4993114;28;20458;-72
2023/07/12 07:15:50;;;;;;;10.60;1.58;;;22.10;99.90;;;;;;4992750;28;20049;-72
2023/07/12 07:18:16;;;;;;;6.20;1.63;;;22.20;99.90;;;;;;4988762;28;20035;-72
2023/07/12 07:20:43;;;;;;;6.60;1.50;;;22.10;99.90;;;;;;4990498;28;20038;-71
2023/07/12 07:23:10;;;;;;;11.52;1.83;;;21.90;99.90;;;;;;4994697;28;20042;-72
2023/07/12 07:25:37;;;;;;;8.75;1.55;;;21.60;99.90;;;;;;4995951;28;20480;-71
2023/07/12 07:28:03;;;;;;;5.65;1.67;;;21.60;99.90;;;;;;4989913;28;20033;-71
2023/07/12 07:30:29;;;;;;;5.10;1.67;;;22.30;99.90;;;;;;4994006;28;20108;-72
2023/07/12 07:32:55;;;;;;;9.27;1.67;;;23.00;99.90;;;;;;4990650;28;20037;-72
2023/07/12 07:35:21;;;;;;;5.22;1.10;;;24.00;99.90;;;;;;4991667;28;20117;-71
2023/07/12 07:37:48;;;;;;;7.30;1.65;;;24.90;99.90;;;;;;4994236;28;20034;-71
2023/07/12 07:40:14;;;;;;;6.85;1.52;;;25.40;99.90;;;;;;4994786;28;20467;-71
2023/07/12 07:42:40;;;;;;;9.02;1.90;;;25.10;99.90;;;;;;4990073;28;20065;-73
2023/07/12 07:45:07;;;;;;;9.00;1.30;;;25.00;99.90;;;;;;4996700;28;20037;-70
2023/07/12 07:47:33;;;;;;;10.23;1.58;;;24.40;99.90;;;;;;4995663;28;20076;-72
2023/07/12 07:49:59;;;;;;;5.05;1.65;;;23.70;99.90;;;;;;4989745;28;20034;-71
2023/07/12 07:52:24;;;;;;;6.82;1.83;;;23.20;99.90;;;;;;4997154;28;20036;-71
2023/07/12 07:54:50;;;;;;;8.27;1.30;;;22.70;99.90;;;;;;4993794;28;20069;-72
2023/07/12 07:57:15;;;;;;;4.18;0.77;;;23.00;99.90;;;;;;4994889;28;20042;-71
2023/07/12 07:59:41;;;;;;;8.00;1.42;;;23.70;99.90;;;;;;4990628;28;20052;-71
2023/07/12 08:02:10;;;;;;;10.00;1.70;;;23.80;99.90;;;;;;4994904;28;20104;-71
2023/07/12 08:04:36;;;;;;;10.68;1.88;;;23.50;99.90;;;;;;4995093;28;20037;-70
2023/07/12 08:07:03;;;;;;;5.07;1.40;;;23.10;99.90;;;;;;4992855;28;20084;-73
2023/07/12 08:09:28;;;;;;;6.10;1.15;;;22.70;99.90;;;;;;4996681;28;20044;-72
2023/07/12 08:11:54;;;;;;;3.28;0.80;;;22.70;99.90;;;;;;4995971;28;20038;-71
2023/07/12 08:14:20;;;;;;;4.18;1.05;;;22.80;99.90;;;;;;4991472;28;20042;-73
2023/07/12 08:16:48;;;;;;;5.65;1.42;;;22.70;99.90;;;;;;4990013;28;20034;-71
2023/07/12 08:19:14;;;;;;;7.38;1.02;;;22.60;99.90;;;;;;4993536;28;20133;-70
2023/07/12 08:21:40;;;;;;;5.32;1.02;;;22.40;99.90;;;;;;4992189;28;20034;-71
2023/07/12 08:24:06;;;;;;;6.35;1.83;;;22.50;99.90;;;;;;4993150;28;20041;-71
2023/07/12 08:26:31;;;;;;;6.15;1.35;;;22.70;99.90;;;;;;4998425;28;20029;-71
2023/07/12 08:28:57;;;;;;;6.90;0.90;;;22.70;99.90;;;;;;4992403;28;20035;-70
2023/07/12 08:31:22;;;;;;;6.55;0.63;;;22.50;99.90;;;;;;4994160;28;20045;-70
2023/07/12 08:33:49;;;;;;;3.50;0.82;;;22.20;99.90;;;;;;4994813;28;20100;-71
2023/07/12 08:36:15;;;;;;;4.60;0.80;;;21.90;99.90;;;;;;4994965;28;20074;-70
2023/07/12 08:38:41;;;;;;;7.07;0.65;;;21.60;99.90;;;;;;4985536;28;20042;-71
2023/07/12 08:41:26;;;;;;;5.10;0.88;;;21.40;99.90;;;;;;4993164;28;20045;-71
2023/07/12 08:43:52;;;;;;;7.65;1.05;;;21.60;99.90;;;;;;4995023;28;20072;-70
2023/07/12 08:46:24;;;;;;;7.18;1.52;;;21.70;99.90;;;;;;4992744;28;20042;-70
2023/07/12 08:48:57;;;;;;;4.97;1.15;;;21.90;99.90;;;;;;4986211;28;20097;-70
2023/07/12 08:51:28;;;;;;;8.82;1.00;;;22.10;99.90;;;;;;4993052;28;20066;-73
2023/07/12 08:53:55;;;;;;;8.57;0.60;;;22.20;99.90;;;;;;4992559;28;20041;-71
2023/07/12 08:56:21;;;;;;;4.93;0.82;;;22.30;99.90;;;;;;4991776;28;20043;-72
2023/07/12 08:58:50;;;;;;;8.57;1.17;;;22.60;99.90;;;;;;4994548;28;20388;-70
2023/07/12 09:01:46;;;;;;;7.57;1.35;;;22.90;99.90;;;;;;4993127;28;20034;-71
2023/07/12 09:04:24;;;;;;;4.13;0.85;;;23.00;99.90;;;;;;4984547;28;20041;-71
2023/07/12 09:06:58;;;;;;;6.90;0.90;;;22.70;99.90;;;;;;4990250;28;20074;-70
2023/07/12 09:09:24;;;;;;;5.90;1.20;;;22.60;99.90;;;;;;4989107;28;20026;-70
2023/07/12 09:11:50;;;;;;;4.18;1.30;;;22.40;99.90;;;;;;4988740;28;20026;-70
2023/07/12 09:14:22;;;;;;;4.63;0.68;;;22.20;99.90;;;;;;4983506;28;20108;-72
2023/07/12 09:16:54;;;;;;;6.75;1.05;;;22.10;99.90;;;;;;4987706;28;20522;-72
2023/07/12 09:19:25;;;;;;;6.80;1.20;;;21.80;99.90;;;;;;4994512;28;20069;-70
2023/07/12 09:21:56;;;;;;;3.92;0.52;;;21.60;99.90;;;;;;4989241;28;20438;-70
2023/07/12 09:24:24;;;;;;;4.35;0.60;;;21.70;99.90;;;;;;4989465;28;20034;-70
2023/07/12 09:26:50;;;;;;;7.60;0.93;;;21.70;99.90;;;;;;4988728;28;20037;-70
2023/07/12 09:29:24;;;;;;;4.03;0.70;;;21.60;99.90;;;;;;4987468;28;20038;-72
2023/07/12 09:31:51;;;;;;;3.00;0.65;;;21.60;99.90;;;;;;4989386;28;20046;-70
2023/07/12 09:34:32;;;;;;;4.72;0.82;;;21.60;99.90;;;;;;4990368;28;20443;-71
2023/07/12 09:36:59;;;;;;;3.75;0.80;;;21.90;99.90;;;;;;4989866;28;20061;-70
2023/07/12 09:39:26;;;;;;;11.05;1.20;;;22.20;99.90;;;;;;4986089;28;20053;-71
2023/07/12 09:41:56;;;;;;;5.35;0.82;;;22.50;99.90;;;;;;4988191;28;20033;-71
2023/07/12 09:44:22;;;;;;;3.88;0.90;;;22.70;99.90;;;;;;4983914;28;20034;-71
2023/07/12 09:46:53;;;;;;;7.68;1.40;;;22.60;99.90;;;;;;4993486;28;20096;-71
2023/07/12 09:49:51;;;;;;;2.70;0.60;;;22.50;99.90;;;;;;4994659;28;20558;-71
2023/07/12 09:52:27;;;;;;;2.95;0.57;;;22.70;99.90;;;;;;4957502;28;20038;-71
2023/07/12 09:55:09;;;;;;;3.28;0.60;;;23.10;99.90;;;;;;4988458;28;20128;-70
2023/07/12 09:57:59;;;;;;;3.88;0.60;;;23.40;99.90;;;;;;4993840;28;20030;-72
2023/07/12 10:01:12;;;;;;;2.85;0.57;;;23.60;99.90;;;;;;4988419;28;20041;-70
2023/07/12 10:03:44;;;;;;;3.70;0.40;;;23.40;99.90;;;;;;4907482;29;20207;-72
2023/07/12 10:06:22;;;;;;;3.90;0.50;;;23.60;99.90;;;;;;4978024;28;20677;-71
2023/07/12 10:09:12;;;;;;;3.70;0.63;;;23.60;99.90;;;;;;4988519;28;20110;-70
2023/07/12 10:11:53;;;;;;;3.45;0.98;;;23.70;99.90;;;;;;4992447;28;20049;-73
2023/07/12 10:14:21;;;;;;;2.00;0.45;;;23.80;99.90;;;;;;4992278;28;20034;-72
2023/07/12 10:16:51;;;;;;;3.17;0.88;;;23.90;99.90;;;;;;4989504;28;20037;-71
2023/07/12 10:19:28;;;;;;;2.78;0.65;;;23.80;99.90;;;;;;4992168;28;20046;-70
2023/07/12 10:21:56;;;;;;;8.27;1.10;;;23.80;99.90;;;;;;4990013;28;20042;-70
2023/07/12 10:24:33;;;;;;;4.07;0.93;;;23.50;99.90;;;;;;4993034;28;20034;-72
2023/07/12 10:27:01;;;;;;;6.13;1.30;;;23.40;99.90;;;;;;4987655;28;20136;-71
2023/07/12 10:29:57;;;;;;;9.50;0.93;;;23.50;99.90;;;;;;4992276;28;20045;-72
2023/07/12 10:32:27;;;;;;;3.95;0.95;;;23.70;99.90;;;;;;4985839;28;20150;-70
2023/07/12 10:35:23;;;;;;;5.65;0.85;;;23.60;99.90;;;;;;4990665;28;20563;-71
2023/07/12 10:37:57;;;;;;;5.90;1.02;;;23.40;99.90;;;;;;4990546;28;20046;-71
2023/07/12 10:40:27;;;;;;;2.95;0.60;;;23.40;99.90;;;;;;4988987;28;20100;-72
2023/07/12 10:42:57;;;;;;;2.40;0.70;;;23.20;99.90;;;;;;4991323;28;20054;-71
2023/07/12 10:45:37;;;;;;;;;;;23.20;99.90;;;;;;4994456;28;20022;-74
2023/07/12 10:48:04;;;;;;;4.53;1.35;;;23.30;99.90;;;;;;4989994;28;19948;-71
2023/07/12 10:50:35;;;;;;;1.13;0.38;;;23.50;99.90;;;;;;4992393;28;20023;-70
2023/07/12 10:53:14;;;;;;;3.13;0.40;;;23.60;99.90;;;;;;4994221;28;20045;-71
2023/07/12 10:55:47;;;;;;;4.15;0.47;;;23.60;99.90;;;;;;4999855;28;20070;-71
2023/07/12 10:58:25;;;;;;;3.10;0.47;;;23.70;99.90;;;;;;4996033;28;20043;-70
2023/07/12 11:00:57;;;;;;;4.28;0.63;;;24.00;99.90;;;;;;4995557;28;20026;-71
2023/07/12 11:03:47;;;;;;;6.45;0.63;;;24.20;99.90;;;;;;4989277;28;20386;-73
2023/07/12 11:06:22;;;;;;;1.85;0.45;;;24.40;99.90;;;;;;4998841;28;20447;-71
2023/07/12 11:09:02;;;;;;;4.10;0.85;;;24.50;99.90;;;;;;4995662;28;20042;-71
2023/07/12 11:11:41;;;;;;;5.63;0.40;;;24.50;99.90;;;;;;4992871;28;20400;-71
2023/07/12 11:14:33;;;;;;;3.33;0.40;;;24.20;99.90;;;;;;4994599;28;20041;-72
2023/07/12 11:17:08;;;;;;;6.13;1.08;;;24.20;99.90;;;;;;4984182;28;20088;-72
2023/07/12 11:19:40;;;;;;;7.53;1.73;;;24.20;99.90;;;;;;4996477;28;20042;-71
2023/07/12 11:22:22;;;;;;;5.32;0.93;;;24.30;99.90;;;;;;4992332;28;20462;-70
2023/07/12 11:24:57;;;;;;;2.13;0.50;;;24.40;99.90;;;;;;4987286;28;20037;-71
2023/07/12 11:27:44;;;;;;;4.57;0.90;;;24.50;99.90;;;;;;4988714;28;20042;-73
2023/07/12 11:30:16;;;;;;;4.60;0.70;;;24.50;99.90;;;;;;4991123;28;20058;-73
2023/07/12 11:32:45;;;;;;;5.75;1.17;;;24.50;99.90;;;;;;4992976;28;20512;-71
2023/07/12 11:35:24;;;;;;;5.63;1.92;;;24.60;99.90;;;;;;4993228;28;20049;-72
2023/07/12 11:37:56;;;;;;;4.85;0.70;;;24.70;99.90;;;;;;4989933;28;20038;-71
2023/07/12 11:40:23;;;;;;;5.47;0.77;;;24.60;99.90;;;;;;4993838;28;20069;-71
2023/07/12 11:42:49;;;;;;;4.40;0.52;;;24.30;99.80;;;;;;4988378;28;20100;-70
2023/07/12 11:45:19;;;;;;;6.15;0.70;;;24.10;99.90;;;;;;4990510;28;20037;-71
2023/07/12 11:47:49;;;;;;;2.70;0.68;;;24.30;99.90;;;;;;4991968;28;20022;-72
2023/07/12 11:50:19;;;;;;;2.55;0.70;;;24.20;99.90;;;;;;4988976;28;20036;-72
2023/07/12 11:52:45;;;;;;;3.60;0.75;;;24.10;99.90;;;;;;4991562;28;20027;-71
2023/07/12 11:55:20;;;;;;;6.50;1.00;;;23.80;99.90;;;;;;4997693;28;20108;-72
2023/07/12 11:57:47;;;;;;;5.30;0.95;;;23.80;99.90;;;;;;4991802;28;20026;-72
2023/07/12 12:00:26;;;;;;;2.85;0.63;;;24.00;99.90;;;;;;4991244;28;20495;-71
2023/07/12 12:02:55;;;;;;;5.90;0.85;;;24.20;99.90;;;;;;4987062;28;20031;-71
2023/07/12 12:05:27;;;;;;;3.10;0.80;;;24.30;99.60;;;;;;4987263;28;20065;-72
2023/07/12 12:07:55;;;;;;;6.80;1.05;;;24.30;99.10;;;;;;4989259;28;20285;-71
2023/07/12 12:10:24;;;;;;;7.22;1.10;;;24.20;99.80;;;;;;4989902;28;20120;-72
2023/07/12 12:12:51;;;;;;;3.78;0.63;;;24.10;99.40;;;;;;4987401;28;20034;-71
2023/07/12 12:15:20;;;;;;;1.90;0.45;;;24.00;99.80;;;;;;4995400;28;20495;-71
2023/07/12 12:17:46;;;;;;;5.38;0.73;;;24.00;98.90;;;;;;4988282;28;20029;-73
2023/07/12 12:20:30;;;;;;;6.55;1.33;;;24.00;99.00;;;;;;4992808;28;20045;-70
2023/07/12 12:22:57;;;;;;;3.30;0.40;;;23.90;99.60;;;;;;4994530;28;20061;-72
2023/07/12 12:25:29;;;;;;;2.85;0.52;;;24.00;99.90;;;;;;4992798;28;20080;-70
2023/07/12 12:27:55;;;;;;;8.15;1.00;;;24.10;99.90;;;;;;4991506;28;20026;-71
2023/07/12 12:30:29;;;;;;;4.72;0.50;;;24.00;99.90;;;;;;4994881;28;20052;-71
2023/07/12 12:33:20;;;;;;;6.57;0.57;;;23.90;99.90;;;;;;4993906;28;20114;-72
2023/07/12 12:35:47;;;;;;;4.15;0.73;;;24.00;99.80;;;;;;4989328;28;20045;-73
2023/07/12 12:38:22;;;;;;;2.08;0.47;;;24.00;99.40;;;;;;4990647;28;20037;-71
2023/07/12 12:41:21;;;;;;;5.93;0.77;;;24.00;99.30;;;;;;4993631;28;20408;-70
2023/07/12 12:43:55;;;;;;;2.65;0.50;;;24.10;99.10;;;;;;4973817;28;20049;-71
2023/07/12 12:46:21;;;;;;;1.05;0.30;;;24.10;99.10;;;;;;4990197;28;20042;-71
2023/07/12 12:48:51;;;;;;;2.22;0.30;;;24.20;98.20;;;;;;4989506;28;20518;-73
2023/07/12 12:51:16;;;;;;;2.13;0.33;;;24.10;98.20;;;;;;4990098;28;20054;-72
2023/07/12 12:53:42;;;;;;;6.35;0.63;;;24.20;96.70;;;;;;4993076;28;20295;-72